Adamsville, RI

12:58 PM EDT on July 01, 2015 (GMT -0400)
KRILITTL3 | | Change Station
CLOSE
Current Station
Personal Weather Station
Location: Little Compton, RI
Elevation: 66 ft
Nearby Weather Stations

Elev 66 ft 41.52 °N, 71.14 °W | Updated 4 minutes ago

Partly Cloudy
Partly Cloudy
79.5 °F
Feels Like 83 °F
N
1.7
Wind Variable Wind from WSW

Today
High -- | Low -- °F
--% Chance of Precip.
Yesterday
High -- | Low -- °F
Precip. -- in
5:14 AM 8:22 PM
Full, 100% visible
Pressure 29.76 in
Visibility 8.0 miles
Clouds Clear
Heat Index 83 °F
Dew Point 71 °F
Humidity 75%
Rainfall 0.00 in
Snow Depth Not available.
UV 12 out of 12
Pollen 1.30 out of 12
Air Quality Not available.
Flu Activity Not available.
METAR KUUU 011653Z AUTO 21012G19KT 8SM CLR 23/19 A2977 RMK AO2 SLP078 T02280189

More Conditions Fewer Conditions

Pressure 29.76 in
Visibility 8.0 miles
Clouds Clear
Heat Index 83 °F
Dew Point 71 °F
Humidity 75%
Rainfall 0.00 in
Snow Depth Not available.
UV 12 out of 12
Pollen 1.30 out of 12
Air Quality Not available.
Flu Activity Not available.
METAR KUUU 011653Z AUTO 21012G19KT 8SM CLR 23/19 A2977 RMK AO2 SLP078 T02280189

More Conditions Fewer Conditions

10-Day Weather Forecast

×

Almanac

Astronomy

Jul. 01, 2015 Rise Set
Actual Time
Civil Twilight
Nautical Twilight
Astronomical Twilight
Moon
Length of Visible Light
Length of Day
Tomorrow will be .
, % of the Moon is Illuminated

Today's Extremes

State Highs State Lows

Community

WunderPhotos

Upload Photos

1,834,240 photos uploaded!

WunderBlogs® & News

Nearby

Air Quality

  Air Quality AQ Index Pollutant
Not available.

Snow Depth

Station Depth Elevation

Earthquake Activity

City Distance Mag. Time & Date
Minimum magnitude displayed is 2.5.

Coastal Water Temperatures

Place Temperature

Stations

Nearby Weather Stations

Station Location Temp. Windchill Dew Point Humidity Wind Precip. Elev Updated Type